Friday, September 21, 2018, 5:38 PM EDT
Back to Local

KMTP, Montauk Airport

Location: Montauk, NY, United States Lat: 41.067
Local Time: 5:38 PM EDT (21:38 GMT) Lon: -71.917
Time Zone: US/Eastern Elev: 6 ft

Show me the last for .
Show Decoded

2018-09-21 16:54 METAR KMTP 212054Z AUTO 19006KT 21/17 A3013 RMK AO1 SLP204 T02110167 58026 =
2018-09-21 15:54 METAR KMTP 211954Z AUTO 20006KT 21/17 A3017 RMK AO1 SLP216 T02060167 =
2018-09-21 14:54 METAR KMTP 211854Z AUTO 18006KT 21/16 A3019 RMK AO1 SLP222 T02060156 =
2018-09-21 13:54 METAR KMTP 211754Z AUTO VRB06KT 21/16 A3021 RMK AO1 SLP230 T02060156 10211 20183
                 57023 =
2018-09-21 12:54 METAR KMTP 211654Z AUTO VRB05KT 21/16 A3023 RMK AO1 SLP238 T02060156 =
2018-09-21 11:54 METAR KMTP 211554Z AUTO VRB05KT 21/14 A3026 RMK AO1 SLP245 T02060144 =
2018-09-21 10:54 METAR KMTP 211454Z AUTO 16005KT 20/14 A3028 RMK AO1 SLP253 T02000144 58008 =
2018-09-21 09:54 METAR KMTP 211354Z AUTO VRB06KT 20/14 A3029 RMK AO1 SLP256 T02000144 =
2018-09-21 08:54 METAR KMTP 211254Z AUTO VRB04KT 19/14 A3030 RMK AO1 SLP259 T01940144 =
2018-09-21 07:54 METAR KMTP 211154Z AUTO VRB03KT 18/14 A3030 RMK AO1 SLP261 T01830144 10183 20161
                 50006 =
2018-09-21 06:54 METAR KMTP 211054Z AUTO 11003KT 16/14 A3031 RMK AO1 SLP263 T01610139 =
2018-09-21 05:54 METAR KMTP 210954Z AUTO 00000KT 16/14 A3029 RMK AO1 SLP258 T01610139 =
2018-09-21 04:54 METAR KMTP 210854Z AUTO 00000KT 17/14 A3029 RMK AO1 SLP256 T01720139 55000 =
2018-09-21 03:54 METAR KMTP 210754Z AUTO 00000KT 17/14 A3028 RMK AO1 SLP254 T01720144 =
2018-09-21 02:54 METAR KMTP 210654Z AUTO 10004KT 18/14 A3028 RMK AO1 SLP254 T01780144 =
2018-09-21 01:54 METAR KMTP 210554Z AUTO 10003KT 17/15 A3029 RMK AO1 SLP256 T01720150 10183 20172
                 56005 =
2018-09-21 00:54 METAR KMTP 210454Z AUTO VRB03KT 18/15 A3029 RMK AO1 SLP257 T01780150 402220167 =
2018-09-20 23:54 METAR KMTP 210354Z AUTO VRB04KT 18/16 A3029 RMK AO1 SLP258 T01780156 =
2018-09-20 22:54 METAR KMTP 210254Z AUTO VRB03KT 18/16 A3030 RMK AO1 SLP261 T01780161 51010 =
2018-09-20 21:54 METAR KMTP 210154Z AUTO 00000KT 18/16 A3030 RMK AO1 SLP261 T01830156 =
2018-09-20 20:54 METAR KMTP 210054Z AUTO 10004KT 18/16 A3028 RMK AO1 SLP252 T01830156 =
2018-09-20 19:54 METAR KMTP 202354Z AUTO 10004KT 18/16 A3027 RMK AO1 SLP251 T01830161 10222 20183
                 51011 =
2018-09-20 18:54 METAR KMTP 202254Z AUTO 18/16 A3027 RMK AO1 SLP249 T01830156 =
2018-09-20 17:54 METAR KMTP 202154Z AUTO VRB04KT 19/16 A3026 RMK AO1 SLP245 T01940156 =

Support USWX by starting your Amazon purchase here.